createdAt,value
2022-10-20T00:01:07.246Z,7.68
2022-10-20T00:03:34.424Z,7.88
2022-10-20T00:06:10.405Z,8.35
2022-10-20T00:08:38.186Z,7.90
2022-10-20T00:11:05.915Z,8.38
2022-10-20T00:13:33.302Z,12.05
2022-10-20T00:16:01.156Z,8.43
2022-10-20T00:18:28.803Z,5.78
2022-10-20T00:20:56.267Z,8.38
2022-10-20T00:23:23.813Z,7.05
2022-10-20T00:26:01.812Z,7.18
2022-10-20T00:28:29.061Z,7.72
2022-10-20T00:30:56.762Z,10.15
2022-10-20T00:33:24.544Z,10.07
2022-10-20T00:35:51.689Z,9.43
2022-10-20T00:40:51.260Z,7.25
2022-10-20T00:43:18.742Z,6.95
2022-10-20T00:45:51.752Z,13.65
2022-10-20T00:48:25.761Z,8.73
2022-10-20T00:50:55.035Z,5.05
2022-10-20T00:53:23.201Z,6.88
2022-10-20T00:55:51.788Z,12.65
2022-10-20T00:58:19.585Z,12.77
2022-10-20T01:00:48.765Z,7.70
2022-10-20T01:03:19.879Z,7.72
2022-10-20T01:05:47.039Z,7.68
2022-10-20T01:08:14.190Z,7.15
2022-10-20T01:10:51.834Z,6.45
2022-10-20T01:13:33.286Z,10.13
2022-10-20T01:16:07.576Z,13.15
2022-10-20T01:18:47.442Z,8.43
2022-10-20T01:21:58.572Z,8.43
2022-10-20T01:24:34.538Z,12.30
2022-10-20T01:27:23.455Z,7.97
2022-10-20T01:30:16.118Z,9.10
2022-10-20T01:33:22.329Z,11.77
2022-10-20T01:36:05.975Z,7.43
2022-10-20T01:38:55.146Z,5.90
2022-10-20T01:41:34.069Z,10.50
2022-10-20T01:44:02.890Z,12.23
2022-10-20T01:46:30.329Z,8.88
2022-10-20T01:48:58.816Z,9.07
2022-10-20T01:51:25.985Z,8.82
2022-10-20T01:53:53.140Z,5.68
2022-10-20T01:56:37.062Z,7.13
2022-10-20T01:59:20.116Z,11.93
2022-10-20T02:02:22.605Z,6.25
2022-10-20T02:05:11.363Z,6.45
2022-10-20T02:07:39.240Z,7.47
2022-10-20T02:10:27.984Z,6.18
2022-10-20T02:12:58.936Z,9.55
2022-10-20T02:15:27.798Z,5.30
2022-10-20T02:18:02.464Z,9.70
2022-10-20T02:20:30.597Z,8.18
2022-10-20T02:22:59.040Z,7.93
2022-10-20T02:25:27.455Z,8.65
2022-10-20T02:27:55.264Z,14.02
2022-10-20T02:30:22.506Z,10.32
2022-10-20T02:32:52.732Z,7.70
2022-10-20T02:35:22.563Z,8.60
2022-10-20T02:37:50.386Z,8.15
2022-10-20T02:40:17.640Z,5.93
2022-10-20T02:42:44.811Z,6.95
2022-10-20T02:45:15.571Z,8.65
2022-10-20T02:47:42.858Z,7.95
2022-10-20T02:50:10.255Z,7.28
2022-10-20T02:52:38.038Z,11.00
2022-10-20T02:55:06.006Z,10.43
2022-10-20T02:57:33.839Z,8.82
2022-10-20T03:00:01.289Z,8.18
2022-10-20T03:02:28.443Z,16.65
2022-10-20T03:04:55.599Z,8.82
2022-10-20T03:07:22.858Z,7.57
2022-10-20T03:09:50.114Z,7.47
2022-10-20T03:12:17.472Z,7.90
2022-10-20T03:14:45.386Z,8.70
2022-10-20T03:17:12.632Z,6.72
2022-10-20T03:19:41.290Z,7.78
2022-10-20T03:22:08.533Z,8.00
2022-10-20T03:24:35.694Z,8.27
2022-10-20T03:27:02.875Z,13.13
2022-10-20T03:29:30.020Z,7.10
2022-10-20T03:31:57.203Z,9.73
2022-10-20T03:34:24.443Z,8.88
2022-10-20T03:36:51.698Z,12.23
2022-10-20T03:39:18.910Z,13.63
2022-10-20T03:41:46.114Z,10.75
2022-10-20T03:44:13.305Z,10.68
2022-10-20T03:46:40.472Z,9.65
2022-10-20T03:49:07.674Z,9.20
2022-10-20T03:51:34.904Z,15.15
2022-10-20T03:54:02.044Z,10.48
2022-10-20T03:56:29.278Z,15.15
2022-10-20T03:58:56.463Z,7.70
2022-10-20T04:01:29.926Z,9.05
2022-10-20T04:03:57.212Z,13.80
2022-10-20T04:06:24.511Z,12.75
2022-10-20T04:08:51.729Z,8.45
2022-10-20T04:11:18.994Z,12.13
2022-10-20T04:13:46.381Z,12.50
2022-10-20T04:16:13.687Z,11.52
2022-10-20T04:18:40.850Z,9.52
2022-10-20T04:21:08.021Z,10.43
2022-10-20T04:23:35.179Z,8.68
2022-10-20T04:26:09.159Z,9.13
2022-10-20T04:28:36.350Z,12.50
2022-10-20T04:31:03.528Z,12.68
2022-10-20T04:33:30.753Z,10.52
2022-10-20T04:36:03.423Z,11.23
2022-10-20T04:38:31.248Z,9.32
2022-10-20T04:41:03.367Z,10.52
2022-10-20T04:43:32.389Z,11.65
2022-10-20T04:46:07.222Z,11.15
2022-10-20T04:48:36.912Z,14.93
2022-10-20T04:51:06.197Z,14.68
2022-10-20T04:53:33.448Z,10.60
2022-10-20T04:56:00.661Z,11.45
2022-10-20T04:58:27.971Z,9.57
2022-10-20T05:00:59.835Z,13.50
2022-10-20T05:03:27.009Z,15.20
2022-10-20T05:05:54.176Z,8.38
2022-10-20T05:08:21.368Z,13.00
2022-10-20T05:10:48.593Z,16.15
2022-10-20T05:13:15.735Z,11.30
2022-10-20T05:15:42.924Z,15.93
2022-10-20T05:18:10.150Z,9.50
2022-10-20T05:20:41.224Z,15.48
2022-10-20T05:23:13.159Z,11.32
2022-10-20T05:25:40.395Z,11.60
2022-10-20T05:28:07.641Z,12.98
2022-10-20T05:30:35.626Z,10.50
2022-10-20T05:33:02.896Z,12.75
2022-10-20T05:35:30.548Z,11.70
2022-10-20T05:37:57.836Z,19.40
2022-10-20T05:40:25.035Z,12.63
2022-10-20T05:42:52.248Z,13.95
2022-10-20T05:45:19.479Z,17.08
2022-10-20T05:47:46.630Z,17.67
2022-10-20T05:50:13.796Z,14.45
2022-10-20T05:52:40.992Z,18.58
2022-10-20T05:55:09.339Z,17.55
2022-10-20T05:57:36.516Z,13.70
2022-10-20T06:00:04.546Z,12.07
2022-10-20T06:02:31.733Z,17.13
2022-10-20T06:04:59.035Z,19.80
2022-10-20T06:07:26.328Z,13.98
2022-10-20T06:09:54.719Z,15.90
2022-10-20T06:12:21.872Z,21.45
2022-10-20T06:14:49.048Z,17.42
2022-10-20T06:17:16.224Z,16.90
2022-10-20T06:19:43.441Z,26.85
2022-10-20T06:22:10.583Z,22.55
2022-10-20T06:24:37.736Z,20.83
2022-10-20T06:27:04.893Z,16.88
2022-10-20T06:29:32.068Z,17.50
2022-10-20T06:31:59.262Z,19.75
2022-10-20T06:34:26.963Z,18.95
2022-10-20T06:36:54.121Z,22.23
2022-10-20T06:39:23.282Z,20.48
2022-10-20T06:41:52.776Z,16.70
2022-10-20T06:44:21.726Z,16.88
2022-10-20T06:46:49.301Z,23.77
2022-10-20T06:49:16.466Z,25.73
2022-10-20T06:51:43.737Z,22.38
2022-10-20T06:54:10.931Z,22.35
2022-10-20T06:56:39.941Z,18.88
2022-10-20T06:59:07.419Z,22.05
2022-10-20T07:01:36.967Z,19.20
2022-10-20T07:04:07.464Z,20.90
2022-10-20T07:06:42.448Z,15.95
2022-10-20T07:09:13.859Z,15.07
2022-10-20T07:11:41.720Z,16.38
2022-10-20T07:14:09.814Z,18.65
2022-10-20T07:16:36.968Z,15.65
2022-10-20T07:19:05.314Z,19.70
2022-10-20T07:21:36.033Z,13.38
2022-10-20T07:24:06.298Z,14.52
2022-10-20T07:26:35.726Z,19.05
2022-10-20T07:31:36.404Z,16.15
2022-10-20T07:34:23.982Z,18.13
2022-10-20T07:36:52.207Z,16.23
2022-10-20T07:39:19.490Z,16.35
2022-10-20T07:41:48.039Z,22.48
2022-10-20T07:44:16.411Z,12.38
2022-10-20T07:46:43.740Z,15.50
2022-10-20T07:51:58.190Z,13.45
2022-10-20T07:54:25.387Z,13.80
2022-10-20T07:56:52.575Z,10.05
2022-10-20T07:59:19.808Z,13.02
2022-10-20T08:01:47.518Z,13.63
2022-10-20T08:04:14.836Z,17.02
2022-10-20T08:06:42.030Z,9.90
2022-10-20T08:09:09.281Z,11.52
2022-10-20T08:11:36.774Z,15.25
2022-10-20T08:14:04.160Z,12.32
2022-10-20T08:16:31.413Z,11.45
2022-10-20T08:21:39.648Z,13.95
2022-10-20T08:24:06.893Z,12.00
2022-10-20T08:26:34.031Z,11.80
2022-10-20T08:29:02.620Z,12.73
2022-10-20T08:31:29.822Z,13.73
2022-10-20T08:33:57.281Z,15.27
2022-10-20T08:36:24.693Z,8.35
2022-10-20T08:38:52.259Z,9.30
2022-10-20T08:41:27.091Z,13.75
2022-10-20T08:44:01.403Z,7.70
2022-10-20T08:46:39.965Z,11.30
2022-10-20T08:49:15.722Z,9.73
2022-10-20T08:51:43.069Z,8.32
2022-10-20T08:54:14.294Z,14.88
2022-10-20T08:56:41.680Z,10.30
2022-10-20T08:59:28.544Z,8.40
2022-10-20T09:01:57.015Z,7.97
2022-10-20T09:04:35.724Z,9.23
2022-10-20T09:07:08.936Z,14.95
2022-10-20T09:09:36.527Z,12.13
2022-10-20T09:12:06.392Z,9.05
2022-10-20T09:14:38.045Z,10.13
2022-10-20T09:17:09.181Z,8.32
2022-10-20T09:19:38.536Z,6.03
2022-10-20T09:22:06.889Z,10.25
2022-10-20T09:24:36.148Z,5.22
2022-10-20T09:29:49.028Z,8.07
2022-10-20T09:32:46.032Z,7.72
2022-10-20T09:35:20.606Z,7.72
2022-10-20T09:38:00.169Z,5.97
2022-10-20T09:40:27.800Z,5.53
2022-10-20T09:43:17.740Z,7.63
2022-10-20T09:45:59.604Z,6.18
2022-10-20T09:48:34.438Z,6.22
2022-10-20T09:51:01.888Z,7.05
2022-10-20T09:53:39.945Z,5.53
2022-10-20T09:56:07.463Z,10.80
2022-10-20T09:58:37.890Z,5.32
2022-10-20T10:01:07.438Z,7.43
2022-10-20T10:03:45.879Z,6.28
2022-10-20T10:06:28.156Z,5.70
2022-10-20T10:08:56.931Z,10.00
2022-10-20T10:11:34.343Z,9.48
2022-10-20T10:14:01.915Z,12.05
2022-10-20T10:16:29.294Z,9.15
2022-10-20T10:19:02.587Z,8.05
2022-10-20T10:21:41.939Z,6.80
2022-10-20T10:26:52.063Z,6.32
2022-10-20T10:29:25.400Z,8.07
2022-10-20T10:32:15.009Z,7.60
2022-10-20T10:34:56.807Z,8.70
2022-10-20T10:37:23.968Z,7.20
2022-10-20T10:39:51.177Z,7.22
2022-10-20T10:42:39.436Z,6.88
2022-10-20T10:45:23.116Z,8.85
2022-10-20T10:48:27.935Z,8.77
2022-10-20T10:50:59.200Z,5.03
2022-10-20T10:54:01.566Z,5.53
2022-10-20T10:56:49.017Z,12.40
2022-10-20T10:59:24.790Z,5.97
2022-10-20T11:02:26.539Z,6.45
2022-10-20T11:05:17.367Z,6.78
2022-10-20T11:08:01.174Z,5.05
2022-10-20T11:10:28.290Z,7.28
2022-10-20T11:13:24.481Z,4.50
2022-10-20T11:16:23.489Z,4.85
2022-10-20T11:19:00.962Z,4.43
2022-10-20T11:21:32.076Z,7.18
2022-10-20T11:24:30.196Z,9.25
2022-10-20T11:27:25.771Z,11.27
2022-10-20T11:30:05.444Z,9.32
2022-10-20T11:32:50.278Z,9.27
2022-10-20T11:35:54.147Z,6.25
2022-10-20T11:38:34.838Z,3.63
2022-10-20T11:41:19.070Z,3.58
2022-10-20T11:43:57.371Z,6.00
2022-10-20T11:46:51.798Z,5.07
2022-10-20T11:49:19.557Z,6.35
2022-10-20T11:51:55.297Z,9.38
2022-10-20T11:54:31.532Z,4.30
2022-10-20T11:57:14.440Z,4.32
2022-10-20T12:00:22.796Z,7.53
2022-10-20T12:02:52.691Z,11.65
2022-10-20T12:06:07.586Z,5.95
2022-10-20T12:09:00.162Z,4.25
2022-10-20T12:11:50.402Z,4.80
2022-10-20T12:14:19.484Z,5.25
2022-10-20T12:16:55.589Z,5.60
2022-10-20T12:19:25.674Z,2.92
2022-10-20T12:22:02.351Z,3.45
2022-10-20T12:24:41.392Z,7.15
2022-10-20T12:27:17.798Z,2.33
2022-10-20T12:29:44.861Z,7.22
2022-10-20T12:32:38.261Z,5.75
2022-10-20T12:35:24.036Z,4.68
2022-10-20T12:38:03.966Z,3.30
2022-10-20T12:40:43.439Z,5.45
2022-10-20T12:43:29.917Z,2.17
2022-10-20T12:45:59.575Z,3.78
2022-10-20T12:48:27.021Z,4.32
2022-10-20T12:50:54.609Z,11.52
2022-10-20T12:53:28.470Z,8.63
2022-10-20T12:56:00.518Z,8.55
2022-10-20T12:58:30.880Z,7.30
2022-10-20T13:00:58.622Z,3.47
2022-10-20T13:03:47.253Z,5.75
2022-10-20T13:06:26.905Z,6.95
2022-10-20T13:09:07.024Z,5.50
2022-10-20T13:11:41.522Z,4.88
2022-10-20T13:14:36.134Z,7.68
2022-10-20T13:17:23.298Z,4.80
2022-10-20T13:20:01.769Z,5.93
2022-10-20T13:22:43.043Z,6.38
2022-10-20T13:25:40.454Z,5.47
2022-10-20T13:28:18.536Z,5.63
2022-10-20T13:31:13.243Z,9.15
2022-10-20T13:34:03.821Z,4.55
2022-10-20T13:36:40.912Z,3.55
2022-10-20T13:39:19.715Z,4.32
2022-10-20T13:41:57.424Z,9.30
2022-10-20T13:44:42.101Z,4.80
2022-10-20T13:47:40.767Z,5.05
2022-10-20T13:50:21.560Z,6.60
2022-10-20T13:52:51.548Z,5.10
2022-10-20T13:55:27.756Z,4.50
2022-10-20T13:58:04.350Z,7.90
2022-10-20T14:00:33.129Z,5.30
2022-10-20T14:03:17.982Z,7.70
2022-10-20T14:05:45.202Z,5.70
2022-10-20T14:08:15.919Z,4.68
2022-10-20T14:10:56.066Z,7.53
2022-10-20T14:13:31.430Z,4.10
2022-10-20T14:16:00.575Z,8.90
2022-10-20T14:18:35.485Z,5.85
2022-10-20T14:21:05.112Z,5.07
2022-10-20T14:23:35.723Z,7.05
2022-10-20T14:26:04.814Z,6.30
2022-10-20T14:28:33.974Z,2.80
2022-10-20T14:31:01.506Z,9.55
2022-10-20T14:33:29.898Z,5.60
2022-10-20T14:36:02.625Z,4.63
2022-10-20T14:38:37.653Z,3.78
2022-10-20T14:41:07.100Z,3.22
2022-10-20T14:43:42.097Z,6.25
2022-10-20T14:46:12.340Z,3.15
2022-10-20T14:48:43.962Z,6.63
2022-10-20T14:51:32.573Z,4.88
2022-10-20T14:54:20.902Z,5.57
2022-10-20T14:56:49.827Z,7.20
2022-10-20T14:59:19.476Z,5.63
2022-10-20T15:02:21.203Z,6.68
2022-10-20T15:04:51.837Z,4.95
2022-10-20T15:07:24.413Z,3.85
2022-10-20T15:09:53.710Z,4.75
2022-10-20T15:14:54.508Z,4.67
2022-10-20T15:17:38.811Z,6.43
2022-10-20T15:20:32.793Z,4.75
2022-10-20T15:23:05.869Z,6.63
2022-10-20T15:25:43.596Z,7.60
2022-10-20T15:28:25.331Z,4.00
2022-10-20T15:30:54.774Z,3.17
2022-10-20T15:33:22.576Z,4.00
2022-10-20T15:35:50.672Z,8.05
2022-10-20T15:38:17.918Z,5.15
2022-10-20T15:40:45.184Z,4.95
2022-10-20T15:43:14.613Z,8.10
2022-10-20T15:45:45.161Z,4.80
2022-10-20T15:48:12.427Z,16.85
2022-10-20T15:50:39.969Z,6.13
2022-10-20T15:53:07.394Z,5.13
2022-10-20T15:55:37.458Z,5.90
2022-10-20T15:58:04.799Z,5.70
2022-10-20T16:00:32.239Z,7.32
2022-10-20T16:02:59.440Z,5.65
2022-10-20T16:05:27.372Z,8.68
2022-10-20T16:07:55.242Z,5.55
2022-10-20T16:10:25.229Z,4.57
2022-10-20T16:12:52.395Z,5.13
2022-10-20T16:15:19.716Z,9.13
2022-10-20T16:17:50.582Z,7.95
2022-10-20T16:20:18.123Z,6.63
2022-10-20T16:22:45.280Z,5.85
2022-10-20T16:25:12.475Z,6.43
2022-10-20T16:27:40.058Z,6.63
2022-10-20T16:30:08.504Z,6.80
2022-10-20T16:32:36.339Z,8.02
2022-10-20T16:35:05.480Z,7.30
2022-10-20T16:37:33.810Z,6.47
2022-10-20T16:40:07.394Z,9.57
2022-10-20T16:42:34.577Z,7.38
2022-10-20T16:45:01.726Z,8.45
2022-10-20T16:47:28.957Z,7.65
2022-10-20T16:49:56.247Z,9.73
2022-10-20T16:52:23.500Z,8.63
2022-10-20T16:54:50.645Z,7.13
2022-10-20T16:57:17.820Z,8.57
2022-10-20T16:59:49.922Z,7.22
2022-10-20T17:02:18.872Z,6.88
2022-10-20T17:04:49.711Z,6.80
2022-10-20T17:07:18.164Z,8.90
2022-10-20T17:09:45.451Z,8.70
2022-10-20T17:12:12.612Z,12.73
2022-10-20T17:14:40.722Z,8.32
2022-10-20T17:17:07.965Z,9.75
2022-10-20T17:19:35.306Z,11.27
2022-10-20T17:22:02.541Z,9.52
2022-10-20T17:24:29.768Z,13.02
2022-10-20T17:26:56.904Z,9.32
2022-10-20T17:29:26.176Z,12.77
2022-10-20T17:31:53.591Z,10.48
2022-10-20T17:34:20.746Z,10.38
2022-10-20T17:36:47.905Z,10.35
2022-10-20T17:39:16.981Z,10.38
2022-10-20T17:41:44.161Z,14.90
2022-10-20T17:44:11.724Z,12.60
2022-10-20T17:46:39.059Z,19.00
2022-10-20T17:49:06.787Z,10.52
2022-10-20T17:51:35.055Z,11.50
2022-10-20T17:54:02.433Z,10.00
2022-10-20T17:56:31.946Z,12.25
2022-10-20T17:59:00.248Z,14.40
2022-10-20T18:01:30.540Z,15.17
2022-10-20T18:04:00.794Z,15.57
2022-10-20T18:06:33.794Z,15.90
2022-10-20T18:09:06.993Z,11.38
2022-10-20T18:11:35.189Z,12.65
2022-10-20T18:14:03.495Z,13.45
2022-10-20T18:16:32.738Z,11.52
2022-10-20T18:19:00.395Z,11.85
2022-10-20T18:21:28.962Z,11.95
2022-10-20T18:23:57.400Z,14.60
2022-10-20T18:26:24.642Z,13.32
2022-10-20T18:28:52.284Z,14.50
2022-10-20T18:31:22.760Z,16.60
2022-10-20T18:33:54.182Z,13.00
2022-10-20T18:36:21.321Z,16.38
2022-10-20T18:38:48.531Z,16.25
2022-10-20T18:41:21.033Z,14.95
2022-10-20T18:43:57.610Z,13.13
2022-10-20T18:46:29.859Z,16.95
2022-10-20T18:48:58.016Z,15.88
2022-10-20T18:51:25.299Z,14.45
2022-10-20T18:53:55.172Z,14.57
2022-10-20T18:56:24.350Z,17.50
2022-10-20T18:58:53.947Z,12.68
2022-10-20T19:01:23.345Z,22.38
2022-10-20T19:03:53.077Z,15.38
2022-10-20T19:06:22.092Z,15.98
2022-10-20T19:08:54.077Z,17.95
2022-10-20T19:11:23.298Z,22.27
2022-10-20T19:13:50.569Z,18.15
2022-10-20T19:16:20.639Z,17.50
2022-10-20T19:18:50.391Z,20.95
2022-10-20T19:21:18.015Z,18.13
2022-10-20T19:23:48.298Z,14.73
2022-10-20T19:26:18.251Z,19.38
2022-10-20T19:28:58.822Z,17.52
2022-10-20T19:31:27.658Z,15.00
2022-10-20T19:33:58.319Z,17.77
2022-10-20T19:36:26.750Z,17.70
2022-10-20T19:38:54.589Z,11.83
2022-10-20T19:41:22.625Z,15.82
2022-10-20T19:43:50.201Z,15.77
2022-10-20T19:46:19.705Z,15.02
2022-10-20T19:48:47.724Z,15.52
2022-10-20T19:51:16.895Z,19.05
2022-10-20T19:53:44.485Z,17.88
2022-10-20T19:56:11.762Z,13.95
2022-10-20T19:58:42.628Z,18.63
2022-10-20T20:01:12.884Z,17.15
2022-10-20T20:03:40.077Z,16.95
2022-10-20T20:06:16.200Z,15.85
2022-10-20T20:08:48.616Z,20.73
2022-10-20T20:11:24.015Z,16.10
2022-10-20T20:14:02.372Z,13.52
2022-10-20T20:16:30.005Z,13.75
2022-10-20T20:18:57.579Z,13.13
2022-10-20T20:21:25.043Z,15.25
2022-10-20T20:24:01.174Z,15.60
2022-10-20T20:26:30.506Z,12.27
2022-10-20T20:28:58.557Z,18.98
2022-10-20T20:31:27.675Z,17.08
2022-10-20T20:33:56.547Z,17.55
2022-10-20T20:36:27.003Z,20.17
2022-10-20T20:38:57.449Z,21.13
2022-10-20T20:41:26.990Z,14.52
2022-10-20T20:43:54.738Z,15.75
2022-10-20T20:46:23.869Z,17.08
2022-10-20T20:48:51.336Z,16.75
2022-10-20T20:51:18.823Z,14.05
2022-10-20T20:53:46.052Z,17.42
2022-10-20T20:56:21.944Z,16.67
2022-10-20T20:58:55.666Z,16.10
2022-10-20T21:04:00.053Z,16.10
2022-10-20T21:06:33.919Z,16.98
2022-10-20T21:09:11.685Z,14.80
2022-10-20T21:11:38.945Z,13.70
2022-10-20T21:14:06.144Z,15.73
2022-10-20T21:16:35.386Z,23.50
2022-10-20T21:19:05.436Z,14.68
2022-10-20T21:21:34.555Z,16.60
2022-10-20T21:24:02.613Z,13.55
2022-10-20T21:26:30.273Z,17.08
2022-10-20T21:28:58.196Z,17.27
2022-10-20T21:31:27.137Z,14.23
2022-10-20T21:33:56.442Z,14.93
2022-10-20T21:36:24.317Z,17.30
2022-10-20T21:38:52.160Z,14.90
2022-10-20T21:41:21.836Z,14.35
2022-10-20T21:43:51.450Z,13.55
2022-10-20T21:46:30.443Z,13.68
2022-10-20T21:49:07.056Z,15.60
2022-10-20T21:51:37.117Z,11.30
2022-10-20T21:54:07.232Z,13.65
2022-10-20T21:56:36.772Z,18.73
2022-10-20T21:59:04.680Z,16.38
2022-10-20T22:01:32.261Z,14.77
2022-10-20T22:03:59.545Z,17.58
2022-10-20T22:06:27.447Z,16.23
2022-10-20T22:08:57.280Z,17.25
2022-10-20T22:11:30.042Z,15.02
2022-10-20T22:13:57.362Z,18.60
2022-10-20T22:16:27.209Z,14.95
2022-10-20T22:18:59.236Z,17.80
2022-10-20T22:21:27.098Z,16.63
2022-10-20T22:23:55.627Z,14.23
2022-10-20T22:26:26.089Z,17.87
2022-10-20T22:28:53.549Z,20.90
2022-10-20T22:31:20.789Z,16.00
2022-10-20T22:33:48.004Z,20.27
2022-10-20T22:36:15.155Z,20.80
2022-10-20T22:38:42.352Z,20.30
2022-10-20T22:41:11.644Z,19.50
2022-10-20T22:46:09.118Z,16.50
2022-10-20T22:48:36.721Z,19.02
2022-10-20T22:51:08.330Z,18.13
2022-10-20T22:53:36.303Z,20.77
2022-10-20T22:56:09.015Z,18.23
2022-10-20T22:58:36.756Z,17.10
2022-10-20T23:01:17.735Z,22.63
2022-10-20T23:03:45.485Z,18.42
2022-10-20T23:06:18.542Z,17.10
2022-10-20T23:08:47.968Z,17.75
2022-10-20T23:11:15.671Z,20.75
2022-10-20T23:13:43.080Z,23.92
2022-10-20T23:16:10.941Z,20.30
2022-10-20T23:18:38.546Z,17.08
2022-10-20T23:21:06.327Z,20.88
2022-10-20T23:23:36.356Z,19.77
2022-10-20T23:26:04.773Z,21.55
2022-10-20T23:28:37.247Z,21.95
2022-10-20T23:31:13.374Z,18.35
2022-10-20T23:33:42.075Z,20.30
2022-10-20T23:36:09.993Z,25.05
2022-10-20T23:38:37.185Z,19.38
2022-10-20T23:41:04.973Z,18.20
2022-10-20T23:43:32.623Z,20.55
2022-10-20T23:46:00.116Z,18.90
2022-10-20T23:48:27.345Z,21.40
2022-10-20T23:50:54.513Z,21.63
2022-10-20T23:53:21.688Z,19.25
2022-10-20T23:55:48.868Z,18.00
2022-10-20T23:58:16.121Z,22.40
